Terminal Aerodrome Forecast
Issued by NWS Hastings, NE

Home | Current Version | Previous Version | Text Only | Print | Product List | Glossary On
Versions: 1 2 3 4 5 6 7 8 9 10 11 12 13
000
FTUS43 KGID 281729
TAFGRI
TAF
KGRI 281729Z 2818/2918 04018G28KT 4SM -RASN OVC006
     FM282000 04018G27KT 4SM -DZ OVC006
     FM282300 03015G22KT P6SM OVC008
     FM290300 02011KT P6SM OVC012
     FM291200 02015G24KT 6SM -RA SCT007 OVC015=

USA.gov is the U.S. government's official web portal to all federal, state and local government web resources and services.